sensor_id;sensor_type;location;lat;lon;timestamp;P1;durP1;ratioP1;P2;durP2;ratioP2
3627;SDS011;1830;49.000;12.074;2024-01-15T00:00:20;61.13;;;25.90;;
3627;SDS011;1830;49.000;12.074;2024-01-15T00:02:47;59.87;;;23.83;;
3627;SDS011;1830;49.000;12.074;2024-01-15T00:05:17;56.37;;;25.07;;
3627;SDS011;1830;49.000;12.074;2024-01-15T00:07:46;56.17;;;24.77;;
3627;SDS011;1830;49.000;12.074;2024-01-15T00:10:13;63.13;;;24.60;;
3627;SDS011;1830;49.000;12.074;2024-01-15T00:12:40;65.20;;;26.17;;
3627;SDS011;1830;49.000;12.074;2024-01-15T00:15:09;56.03;;;23.80;;
3627;SDS011;1830;49.000;12.074;2024-01-15T00:17:36;55.43;;;24.60;;
3627;SDS011;1830;49.000;12.074;2024-01-15T00:20:03;54.70;;;23.30;;
3627;SDS011;1830;49.000;12.074;2024-01-15T00:22:30;61.77;;;23.60;;
3627;SDS011;1830;49.000;12.074;2024-01-15T00:24:57;61.83;;;24.57;;
3627;SDS011;1830;49.000;12.074;2024-01-15T00:27:24;55.63;;;24.20;;
3627;SDS011;1830;49.000;12.074;2024-01-15T00:29:50;49.80;;;17.03;;
3627;SDS011;1830;49.000;12.074;2024-01-15T00:32:18;51.70;;;21.37;;
3627;SDS011;1830;49.000;12.074;2024-01-15T00:34:45;41.33;;;19.80;;
3627;SDS011;1830;49.000;12.074;2024-01-15T00:37:12;55.67;;;23.47;;
3627;SDS011;1830;49.000;12.074;2024-01-15T00:39:39;34.43;;;14.80;;
3627;SDS011;1830;49.000;12.074;2024-01-15T00:42:06;65.67;;;25.07;;
3627;SDS011;1830;49.000;12.074;2024-01-15T00:44:32;44.90;;;17.10;;
3627;SDS011;1830;49.000;12.074;2024-01-15T00:46:59;49.33;;;19.03;;
3627;SDS011;1830;49.000;12.074;2024-01-15T00:49:28;60.17;;;25.50;;
3627;SDS011;1830;49.000;12.074;2024-01-15T00:51:55;38.67;;;15.53;;
3627;SDS011;1830;49.000;12.074;2024-01-15T00:54:21;65.03;;;20.67;;
3627;SDS011;1830;49.000;12.074;2024-01-15T00:56:48;31.53;;;12.50;;
3627;SDS011;1830;49.000;12.074;2024-01-15T00:59:15;39.57;;;16.30;;
3627;SDS011;1830;49.000;12.074;2024-01-15T01:01:42;74.60;;;20.60;;
3627;SDS011;1830;49.000;12.074;2024-01-15T01:04:11;60.00;;;22.00;;
3627;SDS011;1830;49.000;12.074;2024-01-15T01:06:39;47.13;;;18.67;;
3627;SDS011;1830;49.000;12.074;2024-01-15T01:09:06;54.37;;;19.90;;
3627;SDS011;1830;49.000;12.074;2024-01-15T01:11:33;66.30;;;25.07;;
3627;SDS011;1830;49.000;12.074;2024-01-15T01:14:00;30.00;;;10.60;;
3627;SDS011;1830;49.000;12.074;2024-01-15T01:16:26;60.70;;;21.97;;
3627;SDS011;1830;49.000;12.074;2024-01-15T01:18:53;61.37;;;21.93;;
3627;SDS011;1830;49.000;12.074;2024-01-15T01:21:20;28.47;;;12.67;;
3627;SDS011;1830;49.000;12.074;2024-01-15T01:23:48;49.70;;;18.10;;
3627;SDS011;1830;49.000;12.074;2024-01-15T01:26:15;63.87;;;20.80;;
3627;SDS011;1830;49.000;12.074;2024-01-15T01:28:42;56.93;;;19.70;;
3627;SDS011;1830;49.000;12.074;2024-01-15T01:31:09;41.30;;;15.90;;
3627;SDS011;1830;49.000;12.074;2024-01-15T01:33:37;38.97;;;16.60;;
3627;SDS011;1830;49.000;12.074;2024-01-15T01:36:06;39.13;;;13.70;;
3627;SDS011;1830;49.000;12.074;2024-01-15T01:38:33;54.37;;;19.37;;
3627;SDS011;1830;49.000;12.074;2024-01-15T01:41:02;56.23;;;22.50;;
3627;SDS011;1830;49.000;12.074;2024-01-15T01:43:29;47.90;;;19.93;;
3627;SDS011;1830;49.000;12.074;2024-01-15T01:45:56;60.23;;;19.27;;
3627;SDS011;1830;49.000;12.074;2024-01-15T01:48:24;54.43;;;18.27;;
3627;SDS011;1830;49.000;12.074;2024-01-15T01:50:52;45.43;;;16.93;;
3627;SDS011;1830;49.000;12.074;2024-01-15T01:53:19;58.93;;;22.43;;
3627;SDS011;1830;49.000;12.074;2024-01-15T01:55:48;38.97;;;14.63;;
3627;SDS011;1830;49.000;12.074;2024-01-15T01:58:17;46.17;;;18.30;;
3627;SDS011;1830;49.000;12.074;2024-01-15T02:00:45;54.03;;;14.50;;
3627;SDS011;1830;49.000;12.074;2024-01-15T02:03:14;43.13;;;17.87;;
3627;SDS011;1830;49.000;12.074;2024-01-15T02:05:41;49.20;;;16.47;;
3627;SDS011;1830;49.000;12.074;2024-01-15T02:08:10;56.57;;;19.30;;
3627;SDS011;1830;49.000;12.074;2024-01-15T02:10:37;51.57;;;17.10;;
3627;SDS011;1830;49.000;12.074;2024-01-15T02:18:16;56.70;;;19.27;;
3627;SDS011;1830;49.000;12.074;2024-01-15T02:20:43;43.60;;;15.40;;
3627;SDS011;1830;49.000;12.074;2024-01-15T02:29:09;46.63;;;18.80;;
3627;SDS011;1830;49.000;12.074;2024-01-15T02:31:37;50.00;;;19.40;;
3627;SDS011;1830;49.000;12.074;2024-01-15T02:34:05;53.43;;;20.47;;
3627;SDS011;1830;49.000;12.074;2024-01-15T02:36:31;41.40;;;15.00;;
3627;SDS011;1830;49.000;12.074;2024-01-15T02:38:58;46.20;;;18.00;;
3627;SDS011;1830;49.000;12.074;2024-01-15T02:41:26;49.00;;;17.53;;
3627;SDS011;1830;49.000;12.074;2024-01-15T02:43:55;46.70;;;18.03;;
3627;SDS011;1830;49.000;12.074;2024-01-15T02:46:26;36.30;;;14.00;;
3627;SDS011;1830;49.000;12.074;2024-01-15T02:48:55;53.70;;;18.00;;
3627;SDS011;1830;49.000;12.074;2024-01-15T02:51:22;34.57;;;12.50;;
3627;SDS011;1830;49.000;12.074;2024-01-15T02:53:54;31.20;;;10.97;;
3627;SDS011;1830;49.000;12.074;2024-01-15T02:56:21;48.73;;;17.83;;
3627;SDS011;1830;49.000;12.074;2024-01-15T02:58:48;44.07;;;16.70;;
3627;SDS011;1830;49.000;12.074;2024-01-15T03:01:17;37.87;;;14.17;;
3627;SDS011;1830;49.000;12.074;2024-01-15T03:03:46;31.93;;;12.07;;
3627;SDS011;1830;49.000;12.074;2024-01-15T03:06:13;37.30;;;13.60;;
3627;SDS011;1830;49.000;12.074;2024-01-15T03:08:39;41.43;;;15.57;;
3627;SDS011;1830;49.000;12.074;2024-01-15T03:11:06;40.47;;;15.53;;
3627;SDS011;1830;49.000;12.074;2024-01-15T03:13:35;32.03;;;11.67;;
3627;SDS011;1830;49.000;12.074;2024-01-15T03:16:02;30.90;;;13.10;;
3627;SDS011;1830;49.000;12.074;2024-01-15T03:18:29;31.10;;;13.87;;
3627;SDS011;1830;49.000;12.074;2024-01-15T03:20:57;27.67;;;10.87;;
3627;SDS011;1830;49.000;12.074;2024-01-15T03:23:26;37.70;;;12.60;;
3627;SDS011;1830;49.000;12.074;2024-01-15T03:25:53;39.07;;;14.43;;
3627;SDS011;1830;49.000;12.074;2024-01-15T03:28:19;32.27;;;10.67;;
3627;SDS011;1830;49.000;12.074;2024-01-15T03:30:46;31.77;;;12.10;;
3627;SDS011;1830;49.000;12.074;2024-01-15T03:33:13;41.87;;;12.23;;
3627;SDS011;1830;49.000;12.074;2024-01-15T03:35:40;31.97;;;12.83;;
3627;SDS011;1830;49.000;12.074;2024-01-15T03:38:08;36.53;;;13.23;;
3627;SDS011;1830;49.000;12.074;2024-01-15T03:40:35;35.30;;;14.20;;
3627;SDS011;1830;49.000;12.074;2024-01-15T03:43:02;31.57;;;13.73;;
3627;SDS011;1830;49.000;12.074;2024-01-15T03:45:29;26.87;;;8.73;;
3627;SDS011;1830;49.000;12.074;2024-01-15T03:47:55;33.07;;;13.20;;
3627;SDS011;1830;49.000;12.074;2024-01-15T03:50:22;37.10;;;14.60;;
3627;SDS011;1830;49.000;12.074;2024-01-15T03:52:49;33.47;;;10.77;;
3627;SDS011;1830;49.000;12.074;2024-01-15T03:55:17;36.83;;;14.43;;
3627;SDS011;1830;49.000;12.074;2024-01-15T03:57:44;34.20;;;12.37;;
3627;SDS011;1830;49.000;12.074;2024-01-15T04:00:11;16.43;;;6.93;;
3627;SDS011;1830;49.000;12.074;2024-01-15T04:02:42;17.40;;;7.20;;
3627;SDS011;1830;49.000;12.074;2024-01-15T04:05:15;48.17;;;10.47;;
3627;SDS011;1830;49.000;12.074;2024-01-15T04:07:42;35.00;;;12.50;;
3627;SDS011;1830;49.000;12.074;2024-01-15T04:10:09;17.17;;;7.60;;
3627;SDS011;1830;49.000;12.074;2024-01-15T04:12:37;18.13;;;7.93;;
3627;SDS011;1830;49.000;12.074;2024-01-15T04:15:04;32.27;;;12.80;;
3627;SDS011;1830;49.000;12.074;2024-01-15T04:17:31;28.57;;;11.23;;
3627;SDS011;1830;49.000;12.074;2024-01-15T04:19:58;36.10;;;13.50;;
3627;SDS011;1830;49.000;12.074;2024-01-15T04:22:25;31.40;;;13.30;;
3627;SDS011;1830;49.000;12.074;2024-01-15T04:24:53;30.50;;;12.30;;
3627;SDS011;1830;49.000;12.074;2024-01-15T04:27:20;24.70;;;9.13;;
3627;SDS011;1830;49.000;12.074;2024-01-15T04:29:48;26.50;;;12.30;;
3627;SDS011;1830;49.000;12.074;2024-01-15T04:32:15;25.00;;;11.30;;
3627;SDS011;1830;49.000;12.074;2024-01-15T04:34:41;34.30;;;12.00;;
3627;SDS011;1830;49.000;12.074;2024-01-15T04:37:08;24.50;;;10.97;;
3627;SDS011;1830;49.000;12.074;2024-01-15T04:39:36;32.27;;;12.47;;
3627;SDS011;1830;49.000;12.074;2024-01-15T04:42:03;21.33;;;10.20;;
3627;SDS011;1830;49.000;12.074;2024-01-15T04:44:30;32.07;;;14.80;;
3627;SDS011;1830;49.000;12.074;2024-01-15T04:46:58;23.23;;;10.17;;
3627;SDS011;1830;49.000;12.074;2024-01-15T04:49:25;18.70;;;7.87;;
3627;SDS011;1830;49.000;12.074;2024-01-15T04:51:54;24.47;;;11.53;;
3627;SDS011;1830;49.000;12.074;2024-01-15T04:54:21;32.93;;;10.33;;
3627;SDS011;1830;49.000;12.074;2024-01-15T04:56:48;38.33;;;12.80;;
3627;SDS011;1830;49.000;12.074;2024-01-15T04:59:15;34.07;;;13.00;;
3627;SDS011;1830;49.000;12.074;2024-01-15T05:01:42;33.00;;;12.50;;
3627;SDS011;1830;49.000;12.074;2024-01-15T05:04:10;32.47;;;12.47;;
3627;SDS011;1830;49.000;12.074;2024-01-15T05:06:36;40.13;;;12.40;;
3627;SDS011;1830;49.000;12.074;2024-01-15T05:09:03;29.30;;;11.47;;
3627;SDS011;1830;49.000;12.074;2024-01-15T05:11:30;31.27;;;12.83;;
3627;SDS011;1830;49.000;12.074;2024-01-15T05:13:57;35.30;;;13.40;;
3627;SDS011;1830;49.000;12.074;2024-01-15T05:16:24;37.40;;;13.37;;
3627;SDS011;1830;49.000;12.074;2024-01-15T05:18:51;29.20;;;12.00;;
3627;SDS011;1830;49.000;12.074;2024-01-15T05:21:19;26.43;;;11.50;;
3627;SDS011;1830;49.000;12.074;2024-01-15T05:23:46;28.43;;;10.37;;
3627;SDS011;1830;49.000;12.074;2024-01-15T05:26:13;52.43;;;20.73;;
3627;SDS011;1830;49.000;12.074;2024-01-15T05:28:40;24.27;;;10.30;;
3627;SDS011;1830;49.000;12.074;2024-01-15T05:31:12;31.27;;;13.57;;
3627;SDS011;1830;49.000;12.074;2024-01-15T05:44:16;17.00;;;8.67;;
3627;SDS011;1830;49.000;12.074;2024-01-15T05:46:51;24.47;;;11.13;;
3627;SDS011;1830;49.000;12.074;2024-01-15T05:50:06;31.47;;;12.10;;
3627;SDS011;1830;49.000;12.074;2024-01-15T05:52:51;32.70;;;11.67;;
3627;SDS011;1830;49.000;12.074;2024-01-15T05:56:07;27.17;;;11.93;;
3627;SDS011;1830;49.000;12.074;2024-01-15T05:58:37;16.17;;;8.93;;
3627;SDS011;1830;49.000;12.074;2024-01-15T06:01:24;32.70;;;12.63;;
3627;SDS011;1830;49.000;12.074;2024-01-15T06:04:22;27.37;;;12.43;;
3627;SDS011;1830;49.000;12.074;2024-01-15T06:06:49;31.57;;;13.03;;
3627;SDS011;1830;49.000;12.074;2024-01-15T06:09:17;23.53;;;11.73;;
3627;SDS011;1830;49.000;12.074;2024-01-15T06:15:14;38.07;;;11.73;;
3627;SDS011;1830;49.000;12.074;2024-01-15T06:20:44;31.63;;;13.47;;
3627;SDS011;1830;49.000;12.074;2024-01-15T06:23:13;34.60;;;13.00;;
3627;SDS011;1830;49.000;12.074;2024-01-15T06:26:02;28.70;;;13.47;;
3627;SDS011;1830;49.000;12.074;2024-01-15T06:28:30;26.10;;;11.97;;
3627;SDS011;1830;49.000;12.074;2024-01-15T06:30:59;28.50;;;11.67;;
3627;SDS011;1830;49.000;12.074;2024-01-15T06:33:35;31.40;;;14.03;;
3627;SDS011;1830;49.000;12.074;2024-01-15T06:36:05;31.27;;;12.90;;
3627;SDS011;1830;49.000;12.074;2024-01-15T06:38:33;26.60;;;12.47;;
3627;SDS011;1830;49.000;12.074;2024-01-15T06:41:00;32.60;;;14.33;;
3627;SDS011;1830;49.000;12.074;2024-01-15T06:43:27;26.83;;;12.50;;
3627;SDS011;1830;49.000;12.074;2024-01-15T06:45:53;22.40;;;9.90;;
3627;SDS011;1830;49.000;12.074;2024-01-15T06:48:20;41.40;;;12.87;;
3627;SDS011;1830;49.000;12.074;2024-01-15T06:50:48;33.13;;;12.40;;
3627;SDS011;1830;49.000;12.074;2024-01-15T06:53:15;30.33;;;13.17;;
3627;SDS011;1830;49.000;12.074;2024-01-15T06:55:42;32.27;;;12.27;;
3627;SDS011;1830;49.000;12.074;2024-01-15T06:58:09;30.43;;;13.10;;
3627;SDS011;1830;49.000;12.074;2024-01-15T07:00:36;29.30;;;13.90;;
3627;SDS011;1830;49.000;12.074;2024-01-15T07:03:03;37.97;;;13.07;;
3627;SDS011;1830;49.000;12.074;2024-01-15T07:05:29;23.10;;;10.83;;
3627;SDS011;1830;49.000;12.074;2024-01-15T07:07:58;33.20;;;13.10;;
3627;SDS011;1830;49.000;12.074;2024-01-15T07:10:25;17.37;;;10.00;;
3627;SDS011;1830;49.000;12.074;2024-01-15T07:12:52;28.27;;;11.60;;
3627;SDS011;1830;49.000;12.074;2024-01-15T07:15:19;19.20;;;9.93;;
3627;SDS011;1830;49.000;12.074;2024-01-15T07:17:46;30.27;;;12.20;;
3627;SDS011;1830;49.000;12.074;2024-01-15T07:20:13;15.20;;;6.10;;
3627;SDS011;1830;49.000;12.074;2024-01-15T07:22:40;21.40;;;9.37;;
3627;SDS011;1830;49.000;12.074;2024-01-15T07:25:17;29.60;;;10.70;;
3627;SDS011;1830;49.000;12.074;2024-01-15T07:28:02;29.87;;;11.53;;
3627;SDS011;1830;49.000;12.074;2024-01-15T07:30:41;16.30;;;9.10;;
3627;SDS011;1830;49.000;12.074;2024-01-15T07:33:11;23.17;;;11.87;;
3627;SDS011;1830;49.000;12.074;2024-01-15T07:35:49;19.93;;;10.83;;
3627;SDS011;1830;49.000;12.074;2024-01-15T07:38:19;19.70;;;8.50;;
3627;SDS011;1830;49.000;12.074;2024-01-15T07:40:48;22.90;;;10.40;;
3627;SDS011;1830;49.000;12.074;2024-01-15T07:46:01;24.50;;;9.47;;
3627;SDS011;1830;49.000;12.074;2024-01-15T07:48:31;23.67;;;10.13;;
3627;SDS011;1830;49.000;12.074;2024-01-15T07:50:58;21.23;;;9.97;;
3627;SDS011;1830;49.000;12.074;2024-01-15T07:53:31;17.87;;;8.13;;
3627;SDS011;1830;49.000;12.074;2024-01-15T07:56:06;16.27;;;8.70;;
3627;SDS011;1830;49.000;12.074;2024-01-15T07:58:33;18.83;;;8.57;;
3627;SDS011;1830;49.000;12.074;2024-01-15T08:01:01;23.23;;;9.30;;
3627;SDS011;1830;49.000;12.074;2024-01-15T08:03:34;22.23;;;9.60;;
3627;SDS011;1830;49.000;12.074;2024-01-15T08:06:02;22.00;;;9.20;;
3627;SDS011;1830;49.000;12.074;2024-01-15T08:08:29;19.80;;;9.87;;
3627;SDS011;1830;49.000;12.074;2024-01-15T08:11:06;16.73;;;8.53;;
3627;SDS011;1830;49.000;12.074;2024-01-15T08:13:36;17.70;;;8.57;;
3627;SDS011;1830;49.000;12.074;2024-01-15T08:16:03;23.47;;;9.30;;
3627;SDS011;1830;49.000;12.074;2024-01-15T08:18:30;19.27;;;9.83;;
3627;SDS011;1830;49.000;12.074;2024-01-15T08:20:56;19.07;;;10.20;;
3627;SDS011;1830;49.000;12.074;2024-01-15T08:23:23;17.80;;;7.80;;
3627;SDS011;1830;49.000;12.074;2024-01-15T08:25:53;18.47;;;7.50;;
3627;SDS011;1830;49.000;12.074;2024-01-15T08:28:21;13.53;;;6.63;;
3627;SDS011;1830;49.000;12.074;2024-01-15T08:30:47;16.90;;;8.87;;
3627;SDS011;1830;49.000;12.074;2024-01-15T08:33:14;15.77;;;8.17;;
3627;SDS011;1830;49.000;12.074;2024-01-15T08:35:41;16.13;;;7.77;;
3627;SDS011;1830;49.000;12.074;2024-01-15T08:38:08;14.77;;;8.03;;
3627;SDS011;1830;49.000;12.074;2024-01-15T08:40:35;18.50;;;8.30;;
3627;SDS011;1830;49.000;12.074;2024-01-15T08:43:02;11.50;;;6.33;;
3627;SDS011;1830;49.000;12.074;2024-01-15T08:45:30;14.13;;;7.27;;
3627;SDS011;1830;49.000;12.074;2024-01-15T08:47:56;15.17;;;7.97;;
3627;SDS011;1830;49.000;12.074;2024-01-15T08:50:23;12.10;;;6.33;;
3627;SDS011;1830;49.000;12.074;2024-01-15T08:52:50;15.20;;;6.53;;
3627;SDS011;1830;49.000;12.074;2024-01-15T08:55:17;14.97;;;7.57;;
3627;SDS011;1830;49.000;12.074;2024-01-15T08:57:44;19.90;;;7.63;;
3627;SDS011;1830;49.000;12.074;2024-01-15T09:00:11;19.43;;;8.13;;
3627;SDS011;1830;49.000;12.074;2024-01-15T09:02:54;12.20;;;6.90;;
3627;SDS011;1830;49.000;12.074;2024-01-15T09:05:21;27.13;;;9.10;;
3627;SDS011;1830;49.000;12.074;2024-01-15T09:07:48;6.83;;;4.50;;
3627;SDS011;1830;49.000;12.074;2024-01-15T09:10:17;12.03;;;6.10;;
3627;SDS011;1830;49.000;12.074;2024-01-15T09:12:44;15.30;;;7.30;;
3627;SDS011;1830;49.000;12.074;2024-01-15T09:15:10;12.43;;;5.90;;
3627;SDS011;1830;49.000;12.074;2024-01-15T09:17:37;13.27;;;7.23;;
3627;SDS011;1830;49.000;12.074;2024-01-15T09:20:06;18.27;;;8.27;;
3627;SDS011;1830;49.000;12.074;2024-01-15T09:22:34;16.87;;;8.33;;
3627;SDS011;1830;49.000;12.074;2024-01-15T09:25:07;20.37;;;6.10;;
3627;SDS011;1830;49.000;12.074;2024-01-15T09:27:34;8.40;;;5.40;;
3627;SDS011;1830;49.000;12.074;2024-01-15T09:30:01;8.00;;;4.70;;
3627;SDS011;1830;49.000;12.074;2024-01-15T09:32:29;15.00;;;7.10;;
3627;SDS011;1830;49.000;12.074;2024-01-15T09:34:57;17.20;;;7.27;;
3627;SDS011;1830;49.000;12.074;2024-01-15T09:37:25;14.17;;;6.90;;
3627;SDS011;1830;49.000;12.074;2024-01-15T09:39:52;7.57;;;4.63;;
3627;SDS011;1830;49.000;12.074;2024-01-15T09:42:20;12.73;;;6.50;;
3627;SDS011;1830;49.000;12.074;2024-01-15T09:44:49;16.20;;;7.73;;
3627;SDS011;1830;49.000;12.074;2024-01-15T09:47:19;13.00;;;6.30;;
3627;SDS011;1830;49.000;12.074;2024-01-15T09:49:46;10.67;;;5.00;;
3627;SDS011;1830;49.000;12.074;2024-01-15T09:52:14;13.70;;;7.00;;
3627;SDS011;1830;49.000;12.074;2024-01-15T09:54:44;12.47;;;6.07;;
3627;SDS011;1830;49.000;12.074;2024-01-15T09:57:14;10.10;;;4.20;;
3627;SDS011;1830;49.000;12.074;2024-01-15T09:59:41;11.53;;;6.10;;
3627;SDS011;1830;49.000;12.074;2024-01-15T10:02:11;8.80;;;5.23;;
3627;SDS011;1830;49.000;12.074;2024-01-15T10:04:43;10.50;;;6.10;;
3627;SDS011;1830;49.000;12.074;2024-01-15T10:07:10;16.97;;;6.63;;
3627;SDS011;1830;49.000;12.074;2024-01-15T10:09:44;14.50;;;6.53;;
3627;SDS011;1830;49.000;12.074;2024-01-15T10:12:12;9.43;;;6.00;;
3627;SDS011;1830;49.000;12.074;2024-01-15T10:14:38;7.00;;;4.70;;
3627;SDS011;1830;49.000;12.074;2024-01-15T10:17:12;12.70;;;6.70;;
3627;SDS011;1830;49.000;12.074;2024-01-15T10:19:41;11.40;;;6.10;;
3627;SDS011;1830;49.000;12.074;2024-01-15T10:22:13;5.60;;;3.90;;
3627;SDS011;1830;49.000;12.074;2024-01-15T10:24:40;20.20;;;6.93;;
3627;SDS011;1830;49.000;12.074;2024-01-15T10:27:09;14.70;;;6.00;;
3627;SDS011;1830;49.000;12.074;2024-01-15T10:29:36;13.70;;;6.43;;
3627;SDS011;1830;49.000;12.074;2024-01-15T10:32:05;24.73;;;6.60;;
3627;SDS011;1830;49.000;12.074;2024-01-15T10:34:37;11.50;;;6.50;;
3627;SDS011;1830;49.000;12.074;2024-01-15T10:37:06;8.40;;;5.33;;
3627;SDS011;1830;49.000;12.074;2024-01-15T10:39:33;17.43;;;6.00;;
3627;SDS011;1830;49.000;12.074;2024-01-15T10:42:01;10.33;;;5.10;;
3627;SDS011;1830;49.000;12.074;2024-01-15T10:44:29;13.20;;;7.40;;
3627;SDS011;1830;49.000;12.074;2024-01-15T10:46:56;11.80;;;6.20;;
3627;SDS011;1830;49.000;12.074;2024-01-15T10:49:23;8.50;;;6.17;;
3627;SDS011;1830;49.000;12.074;2024-01-15T10:51:53;8.87;;;5.40;;
3627;SDS011;1830;49.000;12.074;2024-01-15T10:54:20;14.03;;;7.17;;
3627;SDS011;1830;49.000;12.074;2024-01-15T10:56:48;4.33;;;3.60;;
3627;SDS011;1830;49.000;12.074;2024-01-15T10:59:16;11.50;;;5.80;;
3627;SDS011;1830;49.000;12.074;2024-01-15T11:01:46;15.93;;;5.83;;
3627;SDS011;1830;49.000;12.074;2024-01-15T11:04:13;7.13;;;5.20;;
3627;SDS011;1830;49.000;12.074;2024-01-15T11:06:42;5.93;;;3.53;;
3627;SDS011;1830;49.000;12.074;2024-01-15T11:09:11;9.13;;;5.23;;
3627;SDS011;1830;49.000;12.074;2024-01-15T11:11:40;9.30;;;5.90;;
3627;SDS011;1830;49.000;12.074;2024-01-15T11:14:08;13.70;;;6.90;;
3627;SDS011;1830;49.000;12.074;2024-01-15T11:16:54;15.53;;;5.90;;
3627;SDS011;1830;49.000;12.074;2024-01-15T11:19:22;7.63;;;5.00;;
3627;SDS011;1830;49.000;12.074;2024-01-15T11:21:49;6.57;;;3.23;;
3627;SDS011;1830;49.000;12.074;2024-01-15T11:24:34;12.43;;;5.20;;
3627;SDS011;1830;49.000;12.074;2024-01-15T11:27:02;5.60;;;3.47;;
3627;SDS011;1830;49.000;12.074;2024-01-15T11:29:30;5.00;;;3.23;;
3627;SDS011;1830;49.000;12.074;2024-01-15T11:32:01;7.50;;;3.70;;
3627;SDS011;1830;49.000;12.074;2024-01-15T11:34:50;3.67;;;3.20;;
3627;SDS011;1830;49.000;12.074;2024-01-15T11:37:19;10.47;;;5.63;;
3627;SDS011;1830;49.000;12.074;2024-01-15T11:39:50;15.30;;;5.93;;
3627;SDS011;1830;49.000;12.074;2024-01-15T11:42:18;8.57;;;4.90;;
3627;SDS011;1830;49.000;12.074;2024-01-15T11:44:46;7.77;;;3.70;;
3627;SDS011;1830;49.000;12.074;2024-01-15T11:47:15;8.93;;;6.23;;
3627;SDS011;1830;49.000;12.074;2024-01-15T11:52:29;11.50;;;6.43;;
3627;SDS011;1830;49.000;12.074;2024-01-15T11:55:00;14.23;;;6.90;;
3627;SDS011;1830;49.000;12.074;2024-01-15T11:57:37;30.73;;;10.27;;
3627;SDS011;1830;49.000;12.074;2024-01-15T12:00:08;15.70;;;7.33;;
3627;SDS011;1830;49.000;12.074;2024-01-15T12:02:38;36.90;;;15.70;;
3627;SDS011;1830;49.000;12.074;2024-01-15T12:05:07;9.50;;;4.90;;
3627;SDS011;1830;49.000;12.074;2024-01-15T12:07:35;13.17;;;6.93;;
3627;SDS011;1830;49.000;12.074;2024-01-15T12:10:01;13.53;;;6.33;;
3627;SDS011;1830;49.000;12.074;2024-01-15T12:12:31;11.50;;;5.50;;
3627;SDS011;1830;49.000;12.074;2024-01-15T12:15:05;7.53;;;5.20;;
3627;SDS011;1830;49.000;12.074;2024-01-15T12:17:34;10.50;;;5.30;;
3627;SDS011;1830;49.000;12.074;2024-01-15T12:20:02;10.23;;;6.70;;
3627;SDS011;1830;49.000;12.074;2024-01-15T12:22:29;9.33;;;6.57;;
3627;SDS011;1830;49.000;12.074;2024-01-15T12:24:56;9.30;;;5.70;;
3627;SDS011;1830;49.000;12.074;2024-01-15T12:27:23;15.73;;;6.30;;
3627;SDS011;1830;49.000;12.074;2024-01-15T12:29:51;11.93;;;6.50;;
3627;SDS011;1830;49.000;12.074;2024-01-15T12:32:19;14.33;;;6.67;;
3627;SDS011;1830;49.000;12.074;2024-01-15T12:34:46;10.43;;;5.63;;
3627;SDS011;1830;49.000;12.074;2024-01-15T12:37:17;8.57;;;5.57;;
3627;SDS011;1830;49.000;12.074;2024-01-15T12:39:44;4.07;;;3.37;;
3627;SDS011;1830;49.000;12.074;2024-01-15T12:42:11;8.33;;;4.90;;
3627;SDS011;1830;49.000;12.074;2024-01-15T12:44:40;8.90;;;5.20;;
3627;SDS011;1830;49.000;12.074;2024-01-15T12:47:07;10.20;;;5.93;;
3627;SDS011;1830;49.000;12.074;2024-01-15T12:49:35;9.73;;;5.30;;
3627;SDS011;1830;49.000;12.074;2024-01-15T12:52:02;9.93;;;4.23;;
3627;SDS011;1830;49.000;12.074;2024-01-15T12:54:31;7.70;;;3.40;;
3627;SDS011;1830;49.000;12.074;2024-01-15T12:56:57;10.37;;;5.93;;
3627;SDS011;1830;49.000;12.074;2024-01-15T12:59:24;11.27;;;4.90;;
3627;SDS011;1830;49.000;12.074;2024-01-15T13:01:51;8.70;;;5.40;;
3627;SDS011;1830;49.000;12.074;2024-01-15T13:04:21;9.10;;;5.63;;
3627;SDS011;1830;49.000;12.074;2024-01-15T13:06:48;18.07;;;7.83;;
3627;SDS011;1830;49.000;12.074;2024-01-15T13:09:15;14.43;;;5.63;;
3627;SDS011;1830;49.000;12.074;2024-01-15T13:11:44;17.57;;;7.17;;
3627;SDS011;1830;49.000;12.074;2024-01-15T13:14:10;20.27;;;6.60;;
3627;SDS011;1830;49.000;12.074;2024-01-15T13:16:38;12.90;;;5.80;;
3627;SDS011;1830;49.000;12.074;2024-01-15T13:19:06;7.93;;;3.90;;
3627;SDS011;1830;49.000;12.074;2024-01-15T13:21:33;12.20;;;6.23;;
3627;SDS011;1830;49.000;12.074;2024-01-15T13:24:00;13.20;;;7.33;;
3627;SDS011;1830;49.000;12.074;2024-01-15T13:26:28;17.43;;;6.47;;
3627;SDS011;1830;49.000;12.074;2024-01-15T13:28:56;8.73;;;5.57;;
3627;SDS011;1830;49.000;12.074;2024-01-15T13:31:23;8.50;;;5.70;;
3627;SDS011;1830;49.000;12.074;2024-01-15T13:33:50;10.90;;;5.37;;
3627;SDS011;1830;49.000;12.074;2024-01-15T13:36:17;5.97;;;4.30;;
3627;SDS011;1830;49.000;12.074;2024-01-15T13:38:43;9.60;;;5.10;;
3627;SDS011;1830;49.000;12.074;2024-01-15T13:41:10;6.33;;;4.30;;
3627;SDS011;1830;49.000;12.074;2024-01-15T13:43:37;7.27;;;5.07;;
3627;SDS011;1830;49.000;12.074;2024-01-15T13:46:05;8.70;;;4.67;;
3627;SDS011;1830;49.000;12.074;2024-01-15T13:48:32;12.70;;;6.80;;
3627;SDS011;1830;49.000;12.074;2024-01-15T13:50:59;11.53;;;5.80;;
3627;SDS011;1830;49.000;12.074;2024-01-15T13:53:26;18.20;;;7.70;;
3627;SDS011;1830;49.000;12.074;2024-01-15T13:55:52;7.90;;;4.27;;
3627;SDS011;1830;49.000;12.074;2024-01-15T13:58:19;10.30;;;5.97;;
3627;SDS011;1830;49.000;12.074;2024-01-15T14:00:46;8.60;;;5.00;;
3627;SDS011;1830;49.000;12.074;2024-01-15T14:03:14;9.43;;;6.20;;
3627;SDS011;1830;49.000;12.074;2024-01-15T14:05:41;5.90;;;4.13;;
3627;SDS011;1830;49.000;12.074;2024-01-15T14:08:08;12.50;;;5.33;;
3627;SDS011;1830;49.000;12.074;2024-01-15T14:10:35;7.83;;;5.43;;
3627;SDS011;1830;49.000;12.074;2024-01-15T14:13:02;11.40;;;5.03;;
3627;SDS011;1830;49.000;12.074;2024-01-15T14:15:29;14.60;;;5.37;;
3627;SDS011;1830;49.000;12.074;2024-01-15T14:17:56;7.80;;;6.10;;
3627;SDS011;1830;49.000;12.074;2024-01-15T14:20:25;16.67;;;4.83;;
3627;SDS011;1830;49.000;12.074;2024-01-15T14:22:52;10.30;;;4.33;;
3627;SDS011;1830;49.000;12.074;2024-01-15T14:25:19;10.93;;;5.40;;
3627;SDS011;1830;49.000;12.074;2024-01-15T14:27:46;7.10;;;4.90;;
3627;SDS011;1830;49.000;12.074;2024-01-15T14:30:13;9.30;;;5.10;;
3627;SDS011;1830;49.000;12.074;2024-01-15T14:32:41;7.13;;;4.83;;
3627;SDS011;1830;49.000;12.074;2024-01-15T14:35:08;8.53;;;4.77;;
3627;SDS011;1830;49.000;12.074;2024-01-15T14:37:37;22.37;;;7.97;;
3627;SDS011;1830;49.000;12.074;2024-01-15T14:40:04;14.03;;;8.70;;
3627;SDS011;1830;49.000;12.074;2024-01-15T14:42:35;13.27;;;7.57;;
3627;SDS011;1830;49.000;12.074;2024-01-15T14:45:02;11.03;;;6.53;;
3627;SDS011;1830;49.000;12.074;2024-01-15T14:47:30;9.00;;;4.87;;
3627;SDS011;1830;49.000;12.074;2024-01-15T14:49:58;12.33;;;5.90;;
3627;SDS011;1830;49.000;12.074;2024-01-15T14:52:25;20.47;;;8.73;;
3627;SDS011;1830;49.000;12.074;2024-01-15T14:54:53;11.17;;;5.70;;
3627;SDS011;1830;49.000;12.074;2024-01-15T14:57:20;16.87;;;5.57;;
3627;SDS011;1830;49.000;12.074;2024-01-15T14:59:47;14.13;;;7.13;;
3627;SDS011;1830;49.000;12.074;2024-01-15T15:02:14;9.50;;;5.90;;
3627;SDS011;1830;49.000;12.074;2024-01-15T15:04:41;8.87;;;4.70;;
3627;SDS011;1830;49.000;12.074;2024-01-15T15:07:07;14.03;;;5.33;;
3627;SDS011;1830;49.000;12.074;2024-01-15T15:09:35;8.57;;;6.13;;
3627;SDS011;1830;49.000;12.074;2024-01-15T15:12:04;12.57;;;7.20;;
3627;SDS011;1830;49.000;12.074;2024-01-15T15:14:32;16.93;;;8.43;;
3627;SDS011;1830;49.000;12.074;2024-01-15T15:17:02;13.90;;;7.83;;
3627;SDS011;1830;49.000;12.074;2024-01-15T15:19:30;9.93;;;6.10;;
3627;SDS011;1830;49.000;12.074;2024-01-15T15:21:57;18.20;;;8.37;;
3627;SDS011;1830;49.000;12.074;2024-01-15T15:24:24;9.60;;;5.87;;